Darstellungsparameter: Aktuell verwendete Einstellungen:
Skalierung der Graphiken ... ?
xyx+y,   Skalierungsfaktor:      Skalierung: Modus: x, Faktor: 1
Darstellungszeitraum ... ?
Vom - - bis: - -   Zeitraum: 23.04.2021 - 24.04.2021
Min/Max/Avg-Anzeige ... ?
Zeige MMA aktuell
Zeige MMA Monat
Zeige MMA alles
Zeige --A aktuell
Zeige --A Monat
Zeige --A alles
Keine MMA-Anzeige
MMA:
Average (ber die Originaldaten)
MMA-Basis: 23.04.2021 - 24.04.2021
Quicknavigation für Darstellung... ?
Tage:      1T, 2T, 3T, 5T -1T -2T -3T -5T +1T +2T +3T +5T
Wochen: 1W, 2W, 3W -1W -2W -3W +1W +2W +3W
Monate: 1M, 3M, 6M -1M -3M -6M +1M +3M +6M
Jahre:    1J, 3J, 5J, 10J -1J -3J -5J -10J +1J +3J +5J +10J
Nutze für die Darstellung ... ?
Originaldaten oder Mittelwerte auf ...
Stundenbasis Tagesbasis Wochenbasis
Monatsbasis Jahresbasis      Datenbasis: Original-Daten
Darstellen als:
Statistik (Auto) Statistik J:M      Darstellung:

Der gewünschte Datumsbereich war nicht gültig/verfügbar und wurde korrigiert....
Das angegebene Enddatum (28.02.2022 23:59:59) liegt in der Zukunft.
Das angegebene Startdatum (28.02.2022 00:00:00) liegt in der Zukunft.


Zur Graphik,    zurück zur Übersicht aller Sensoren.
 
Tabellarische Datenbersicht: ?
 
Sensor: Nr:Datum:Temp:Abs-Feuchte:Windchill:Wind:
Aussen-T/F 1 23-04-2021 02:00:00 3.2 C 5.18 g/m*3 3.2 C 0 km/h
2 23-04-2021 02:05:00 3.1 C 5.15 g/m*3 3.1 C 0 km/h
3 23-04-2021 02:10:00 3 C 5.11 g/m*3 3 C 0 km/h
4 23-04-2021 02:15:00 2.9 C 5.14 g/m*3 2.9 C 0 km/h
5 23-04-2021 02:20:00 2.8 C 5.1 g/m*3 2.8 C 0 km/h
6 23-04-2021 02:25:00 2.7 C 5.07 g/m*3 2.7 C 0 km/h
7 23-04-2021 02:30:00 2.7 C 5.13 g/m*3 2.7 C 0 km/h
8 23-04-2021 02:35:00 2.7 C 5.13 g/m*3 2.7 C 0 km/h
9 23-04-2021 02:40:00 2.6 C 5.09 g/m*3 2.6 C 0 km/h
10 23-04-2021 02:45:00 2.5 C 5.06 g/m*3 2.5 C 0 km/h
11 23-04-2021 02:50:00 2.4 C 5.02 g/m*3 2.4 C 0 km/h
12 23-04-2021 02:55:00 2.3 C 4.99 g/m*3 2.3 C 0 km/h
13 23-04-2021 03:00:00 2.3 C 4.99 g/m*3 2.3 C 0 km/h
14 23-04-2021 03:05:00 2.2 C 5.01 g/m*3 2.2 C 0 km/h
15 23-04-2021 03:10:00 2.2 C 5.01 g/m*3 2.2 C 0 km/h
16 23-04-2021 03:15:00 2.1 C 4.98 g/m*3 2.1 C 0 km/h
17 23-04-2021 03:20:00 2 C 4.95 g/m*3 2 C 0 km/h
18 23-04-2021 03:25:00 1.9 C 4.91 g/m*3 1.9 C 0 km/h
19 23-04-2021 03:30:00 1.9 C 4.91 g/m*3 1.9 C 0 km/h
20 23-04-2021 03:35:00 1.8 C 4.88 g/m*3 1.8 C 0 km/h
21 23-04-2021 03:40:00 1.8 C 4.93 g/m*3 1.8 C 0 km/h
22 23-04-2021 03:45:00 1.7 C 4.9 g/m*3 1.7 C 0 km/h
23 23-04-2021 03:50:00 1.7 C 4.9 g/m*3 1.7 C 0 km/h
24 23-04-2021 03:55:00 1.7 C 4.9 g/m*3 1.7 C 0 km/h
25 23-04-2021 04:00:00 1.6 C 4.87 g/m*3 1.6 C 0 km/h
Sensor: Nr:Datum:Temp:Abs-Feuchte:Windchill:Wind:
Aussen-T/F 26 23-04-2021 04:05:00 1.6 C 4.87 g/m*3 1.6 C 0 km/h
27 23-04-2021 04:10:00 1.6 C 4.87 g/m*3 1.6 C 0 km/h
28 23-04-2021 04:15:00 1.5 C 4.83 g/m*3 1.5 C 0 km/h
29 23-04-2021 04:20:00 1.5 C 4.89 g/m*3 1.5 C 0 km/h
30 23-04-2021 04:25:00 1.4 C 4.85 g/m*3 1.4 C 0 km/h
31 23-04-2021 04:30:00 1.3 C 4.82 g/m*3 1.3 C 0 km/h
32 23-04-2021 04:35:00 1.3 C 4.82 g/m*3 1.3 C 0 km/h
33 23-04-2021 04:40:00 1.3 C 4.82 g/m*3 1.3 C 0 km/h
34 23-04-2021 04:45:00 1.3 C 4.82 g/m*3 1.3 C 0 km/h
35 23-04-2021 04:50:00 1.2 C 4.79 g/m*3 1.2 C 0 km/h
36 23-04-2021 04:55:00 1.2 C 4.79 g/m*3 1.2 C 0 km/h
37 23-04-2021 05:00:00 1.1 C 4.76 g/m*3 1.1 C 0 km/h
38 23-04-2021 05:05:00 1.1 C 4.76 g/m*3 1.1 C 0 km/h
39 23-04-2021 05:10:00 1.1 C 4.81 g/m*3 1.1 C 0 km/h
40 23-04-2021 05:15:00 1.1 C 4.81 g/m*3 1.1 C 0 km/h
41 23-04-2021 05:20:00 1.1 C 4.81 g/m*3 1.1 C 0 km/h
42 23-04-2021 05:25:00 1.1 C 4.81 g/m*3 1.1 C 0 km/h
43 23-04-2021 05:30:00 1.1 C 4.81 g/m*3 1.1 C 0 km/h
44 23-04-2021 05:35:00 1 C 4.78 g/m*3 1 C 0 km/h
45 23-04-2021 05:40:00 0.9 C 4.74 g/m*3 0.9 C 0 km/h
46 23-04-2021 05:45:00 0.8 C 4.71 g/m*3 0.8 C 0 km/h
47 23-04-2021 05:50:00 0.8 C 4.71 g/m*3 0.8 C 0 km/h
48 23-04-2021 05:55:00 0.8 C 4.71 g/m*3 0.8 C 0 km/h
49 23-04-2021 06:00:00 0.7 C 4.68 g/m*3 0.7 C 0 km/h
50 23-04-2021 06:05:00 0.6 C 4.65 g/m*3 0.6 C 0 km/h
Sensor: Nr:Datum:Temp:Abs-Feuchte:Windchill:Wind:
Aussen-T/F 51 23-04-2021 06:10:00 0.6 C 4.65 g/m*3 0.6 C 0 km/h
52 23-04-2021 06:15:00 0.6 C 4.65 g/m*3 0.6 C 0 km/h
53 23-04-2021 06:20:00 0.5 C 4.61 g/m*3 0.5 C 0 km/h
54 23-04-2021 06:25:00 0.4 C 4.58 g/m*3 0.4 C 0 km/h
55 23-04-2021 06:30:00 0.4 C 4.58 g/m*3 0.4 C 0 km/h
56 23-04-2021 06:35:00 0.4 C 4.63 g/m*3 0.4 C 0 km/h
57 23-04-2021 06:40:00 0.4 C 4.63 g/m*3 0.4 C 0 km/h
58 23-04-2021 06:45:00 0.4 C 4.63 g/m*3 0.4 C 0 km/h
59 23-04-2021 06:50:00 0.4 C 4.63 g/m*3 0.4 C 0 km/h
60 23-04-2021 06:55:00 0.4 C 4.63 g/m*3 0.4 C 0 km/h
61 23-04-2021 07:00:00 0.3 C 4.6 g/m*3 0.3 C 0 km/h
62 23-04-2021 07:05:00 0.3 C 4.6 g/m*3 0.3 C 0 km/h
63 23-04-2021 07:10:00 0.4 C 4.63 g/m*3 0.4 C 0 km/h
64 23-04-2021 07:15:00 0.4 C 4.63 g/m*3 0.4 C 0 km/h
65 23-04-2021 07:20:00 0.4 C 4.63 g/m*3 0.4 C 0 km/h
66 23-04-2021 07:25:00 0.5 C 4.66 g/m*3 0.5 C 0 km/h
67 23-04-2021 07:30:00 0.5 C 4.71 g/m*3 0.5 C 0 km/h
68 23-04-2021 07:35:00 0.6 C 4.7 g/m*3 0.6 C 0 km/h
69 23-04-2021 07:40:00 0.6 C 4.75 g/m*3 0.6 C 0 km/h
70 23-04-2021 07:45:00 0.7 C 4.78 g/m*3 0.7 C 0 km/h
71 23-04-2021 07:50:00 0.7 C 4.78 g/m*3 0.7 C 0 km/h
72 23-04-2021 07:55:00 0.8 C 4.81 g/m*3 0.8 C 0 km/h
73 23-04-2021 08:00:00 0.8 C 4.81 g/m*3 0.8 C 0 km/h
74 23-04-2021 08:05:00 0.9 C 4.85 g/m*3 0.9 C 0 km/h
75 23-04-2021 08:10:00 1 C 4.88 g/m*3 1 C 0 km/h
Sensor: Nr:Datum:Temp:Abs-Feuchte:Windchill:Wind:
Aussen-T/F 76 23-04-2021 08:15:00 1.1 C 4.91 g/m*3 1.1 C 0 km/h
77 23-04-2021 08:20:00 1.2 C 4.95 g/m*3 1.2 C 0 km/h
78 23-04-2021 08:25:00 1.3 C 4.98 g/m*3 1.3 C 0 km/h
79 23-04-2021 08:30:00 1.4 C 5.01 g/m*3 1.4 C 0 km/h
80 23-04-2021 08:35:00 1.5 C 5.05 g/m*3 1.5 C 0 km/h
81 23-04-2021 08:40:00 1.6 C 5.14 g/m*3 1.6 C 0 km/h
82 23-04-2021 08:45:00 1.8 C 5.21 g/m*3 1.8 C 0 km/h
83 23-04-2021 08:50:00 1.9 C 5.24 g/m*3 1.9 C 0 km/h
84 23-04-2021 08:55:00 2 C 5.28 g/m*3 2 C 0 km/h
85 23-04-2021 09:00:00 2.1 C 5.31 g/m*3 2.1 C 0 km/h
86 23-04-2021 09:05:00 2.3 C 5.39 g/m*3 2.3 C 0 km/h
87 23-04-2021 09:10:00 2.5 C 5.46 g/m*3 2.5 C 0 km/h
88 23-04-2021 09:15:00 2.7 C 5.54 g/m*3 2.7 C 0 km/h
89 23-04-2021 09:20:00 2.9 C 5.61 g/m*3 2.9 C 0 km/h
90 23-04-2021 09:25:00 3.1 C 5.69 g/m*3 3.1 C 0 km/h
91 23-04-2021 09:30:00 3.2 C 5.72 g/m*3 3.2 C 0 km/h
92 23-04-2021 09:35:00 3.3 C 5.76 g/m*3 3.3 C 0 km/h
93 23-04-2021 09:40:00 3.6 C 5.88 g/m*3 3.6 C 0 km/h
94 23-04-2021 09:45:00 3.8 C 5.96 g/m*3 3.8 C 0 km/h
95 23-04-2021 09:50:00 4 C 6.04 g/m*3 4 C 0 km/h
96 23-04-2021 09:55:00 4.2 C 6.12 g/m*3 4.2 C 0 km/h
97 23-04-2021 10:00:00 4.4 C 6.14 g/m*3 4.4 C 0 km/h
98 23-04-2021 10:05:00 4.7 C 6.26 g/m*3 4.7 C 0 km/h
99 23-04-2021 10:10:00 5.1 C 6.29 g/m*3 3.71 C 6.4 km/h
100 23-04-2021 10:15:00 5.6 C 6.29 g/m*3 5.6 C 4.8 km/h
Sensor: Nr:Datum:Temp:Abs-Feuchte:Windchill:Wind:
Aussen-T/F 101 23-04-2021 10:20:00 6.2 C 6.25 g/m*3 6.2 C 4.8 km/h
102 23-04-2021 10:25:00 6.7 C 6.23 g/m*3 6.7 C 4.8 km/h
103 23-04-2021 10:30:00 7.1 C 6.01 g/m*3 5.23 C 9.7 km/h
104 23-04-2021 10:35:00 7.3 C 6 g/m*3 6.25 C 6.4 km/h
105 23-04-2021 10:40:00 7.6 C 5.88 g/m*3 6.16 C 8.1 km/h
106 23-04-2021 10:45:00 7.9 C 5.91 g/m*3 6.18 C 9.7 km/h
107 23-04-2021 10:50:00 8.1 C 5.82 g/m*3 6.75 C 8.1 km/h
108 23-04-2021 10:55:00 8.3 C 5.9 g/m*3 6.99 C 8.1 km/h
109 23-04-2021 11:00:00 8.4 C 5.85 g/m*3 7.52 C 6.4 km/h

Legende:
   Min
   Max


Maximal/Minimal-Werte vom 23.04.2021 - 24.04.2021

Sensor Min Max Avg
Temp
(Aussen-T/F)
0.3 °C
23-04-2021  07:00:00
8.4 °C
23-04-2021  11:00:00
2.19 °C
Abs-Feuchte
(Aussen-T/F)
4.58 g/m*3
23-04-2021  06:25:00
6.29 g/m*3
23-04-2021  10:10:00
5.05 g/m*3
Windchill
(Aussen-T/F)
0.3 C
23-04-2021  07:00:00
7.52 C
23-04-2021  11:00:00
2.07 C

Die Daten stammen von einer Davis Vantage Pro 2 Wetter-Station und werden unter Linux mit der Software wview2wettercgi und aufbereitet. Alle Angaben erfolgen ohne Gewähr für ihre Vollständigkeit oder Richtigkeit.
Kontakt: Rainer Krienke krienke@uni-koblenz.de . Meine Webseiten an der Uni Koblenz oder privat.
Version: $Revision: 0.78 $